Time;durP1;ratioP1;P1;durP2;ratioP2;P2;SDS_P1;SDS_P2;PMS_P1;PMS_P2;Temp;Humidity;BMP_temperature;BMP_pressure;BME280_temperature;BME280_humidity;BME280_pressure;Samples;Min_cycle;Max_cycle;Signal;HPM_P1;HPM_P2
2022/10/08 00:01:02;;;;;;;0.10;0.10;;;;;;;16.08;44.80;95844.63;5038816;28;20958;-71
2022/10/08 00:03:31;;;;;;;0.43;0.43;;;;;;;15.91;45.52;95844.16;5028801;28;20926;-71
2022/10/08 00:06:01;;;;;;;0.10;0.10;;;;;;;15.93;45.35;95852.59;5032206;28;20571;-71
2022/10/08 00:08:30;;;;;;;0.10;0.10;;;;;;;16.14;44.90;95846.22;5041169;28;20477;-71
2022/10/08 00:11:01;;;;;;;0.97;0.93;;;;;;;15.96;45.11;95838.84;5042606;28;20458;-69
2022/10/08 00:13:39;;;;;;;5.53;1.73;;;;;;;15.97;45.83;95840.41;5046830;28;20917;-71
2022/10/08 00:16:07;;;;;;;0.10;0.10;;;;;;;15.56;46.15;95831.72;5040127;28;20457;-71
2022/10/08 00:18:35;;;;;;;0.17;0.17;;;;;;;15.83;45.59;95834.09;5035802;28;20443;-73
2022/10/08 00:21:13;;;;;;;0.47;0.47;;;;;;;15.89;45.39;95835.69;5034438;28;20479;-70
2022/10/08 00:23:45;;;;;;;0.13;0.13;;;;;;;15.74;45.27;95822.47;5043889;28;20519;-70
2022/10/08 00:26:14;;;;;;;0.43;0.43;;;;;;;15.29;47.03;95830.34;5040167;28;20485;-72
2022/10/08 00:28:44;;;;;;;0.20;0.20;;;;;;;15.37;47.09;95821.88;5046987;28;20529;-70
2022/10/08 00:31:16;;;;;;;0.40;0.40;;;;;;;15.51;46.77;95828.28;5041015;28;20542;-71
2022/10/08 00:33:43;;;;;;;0.40;0.40;;;;;;;15.56;46.51;95830.91;5046504;28;20481;-71
2022/10/08 00:36:11;;;;;;;0.30;0.30;;;;;;;15.42;46.79;95824.56;5045014;28;20469;-71
2022/10/08 00:38:39;;;;;;;0.43;0.43;;;;;;;15.52;46.29;95821.94;5045823;28;20454;-70
2022/10/08 00:41:15;;;;;;;0.30;0.30;;;;;;;15.02;47.68;95815.47;5047274;28;20545;-70
2022/10/08 00:43:43;;;;;;;0.20;0.20;;;;;;;15.22;47.31;95804.97;5046365;28;20584;-71
2022/10/08 00:46:35;;;;;;;0.50;0.50;;;;;;;15.22;46.99;95820.81;5038204;28;20565;-69
2022/10/08 00:49:15;;;;;;;0.07;0.07;;;;;;;15.09;47.25;95796.78;5032565;28;20448;-72
2022/10/08 00:51:48;;;;;;;0.40;0.40;;;;;;;15.05;47.95;95822.88;5037177;28;20951;-71
2022/10/08 00:54:18;;;;;;;1.03;0.93;;;;;;;15.19;47.19;95817.91;5032717;28;21239;-70
2022/10/08 00:56:47;;;;;;;0.63;0.63;;;;;;;14.40;48.75;95817.34;5039802;28;20550;-71
2022/10/08 00:59:15;;;;;;;1.00;0.87;;;;;;;14.52;48.56;95796.84;5049665;28;20446;-70
2022/10/08 01:01:43;;;;;;;0.43;0.43;;;;;;;14.76;48.10;95800.63;5045112;28;20906;-70
2022/10/08 01:04:12;;;;;;;0.10;0.10;;;;;;;14.84;48.37;95802.75;5039864;28;20438;-70
2022/10/08 01:07:08;;;;;;;0.60;0.60;;;;;;;14.54;48.04;95807.94;5042895;28;20580;-71
2022/10/08 01:09:44;;;;;;;0.20;0.20;;;;;;;14.27;49.27;95796.72;5039447;28;20481;-70
2022/10/08 01:12:14;;;;;;;0.47;0.47;;;;;;;14.29;49.14;95794.63;5042006;28;20457;-71
2022/10/08 01:14:47;;;;;;;1.27;0.97;;;;;;;14.18;49.88;95783.22;5038475;28;20443;-70
2022/10/08 01:17:50;;;;;;;0.10;0.10;;;;;;;14.39;48.88;95778.88;5039469;28;20635;-71
2022/10/08 01:20:53;;;;;;;0.10;0.10;;;;;;;14.48;49.17;95761.50;5042537;28;20488;-70
2022/10/08 01:23:20;;;;;;;0.20;0.20;;;;;;;14.77;48.21;95770.56;5039124;28;20513;-70
2022/10/08 01:25:54;;;;;;;0.27;0.27;;;;;;;14.93;48.40;95774.00;5041604;28;20570;-70
2022/10/08 01:28:36;;;;;;;0.20;0.20;;;;;;;14.79;48.75;95772.94;5047629;28;20482;-71
2022/10/08 01:31:07;;;;;;;7.03;1.07;;;;;;;14.98;48.19;95766.91;5046895;28;20481;-71
2022/10/08 01:33:44;;;;;;;1.33;1.23;;;;;;;15.01;48.40;95762.97;5030921;28;20957;-70
2022/10/08 01:36:16;;;;;;;1.03;0.93;;;;;;;15.12;47.90;95769.84;5045106;28;20479;-72
2022/10/08 01:38:52;;;;;;;1.17;1.07;;;;;;;14.97;48.39;95759.25;5032125;28;20451;-71
2022/10/08 01:41:23;;;;;;;0.43;0.43;;;;;;;13.92;51.53;95763.03;5041308;28;20483;-72
2022/10/08 01:44:03;;;;;;;1.50;1.23;;;;;;;14.62;48.97;95754.69;5041175;28;20444;-73
2022/10/08 01:46:31;;;;;;;0.60;0.60;;;;;;;14.84;48.55;95759.75;5043424;28;20785;-72
2022/10/08 01:49:09;;;;;;;0.93;0.73;;;;;;;14.98;48.10;95751.06;5035566;28;20479;-71
2022/10/08 01:51:43;;;;;;;1.33;1.27;;;;;;;14.90;48.28;95756.06;5033103;28;20509;-70
2022/10/08 01:54:14;;;;;;;0.87;0.87;;;;;;;14.91;47.84;95755.81;5045666;28;20530;-72
2022/10/08 01:56:44;;;;;;;0.97;0.70;;;;;;;14.84;47.58;95750.00;5043799;28;20475;-70
2022/10/08 01:59:25;;;;;;;0.10;0.10;;;;;;;14.86;48.07;95753.16;5044543;28;20435;-70
2022/10/08 02:01:57;;;;;;;0.73;0.70;;;;;;;14.80;48.01;95764.75;5043346;28;20954;-73
2022/10/08 02:04:34;;;;;;;0.50;0.50;;;;;;;14.78;48.00;95758.16;5037175;28;20440;-72
2022/10/08 02:07:31;;;;;;;0.57;0.57;;;;;;;14.54;49.28;95759.66;5033824;28;20538;-71
2022/10/08 02:10:08;;;;;;;0.30;0.30;;;;;;;14.61;48.31;95762.84;5048101;28;20778;-70
2022/10/08 02:12:38;;;;;;;0.90;0.90;;;;;;;14.50;48.82;95763.88;5039665;28;20812;-71
2022/10/08 02:15:13;;;;;;;0.00;0.00;;;;;;;14.63;48.66;95768.66;5043135;28;20474;-70
2022/10/08 02:17:56;;;;;;;1.33;1.23;;;;;;;14.40;49.20;95769.88;5038979;28;20874;-70
2022/10/08 02:20:44;;;;;;;0.80;0.77;;;;;;;14.55;49.00;95769.97;5029962;28;20935;-70
2022/10/08 02:23:22;;;;;;;0.60;0.60;;;;;;;14.43;49.13;95760.69;5037742;28;20449;-71
2022/10/08 02:25:53;;;;;;;0.50;0.50;;;;;;;14.32;49.22;95765.13;5036550;28;20447;-69
2022/10/08 02:28:44;;;;;;;0.67;0.67;;;;;;;14.26;49.12;95776.66;5041480;28;20450;-70
2022/10/08 02:31:21;;;;;;;1.80;1.70;;;;;;;14.37;49.02;95765.16;5045798;28;20982;-69
2022/10/08 02:34:01;;;;;;;0.73;0.73;;;;;;;13.00;51.78;95762.56;5040085;28;20444;-70
2022/10/08 02:36:34;;;;;;;0.10;0.10;;;;;;;13.80;50.27;95770.34;5044953;28;20914;-72
2022/10/08 02:39:03;;;;;;;1.07;0.80;;;;;;;13.60;50.02;95769.41;5038842;28;20502;-70
2022/10/08 02:41:38;;;;;;;1.50;1.30;;;;;;;13.93;49.72;95764.63;5030892;28;20891;-70
2022/10/08 02:44:16;;;;;;;1.03;0.93;;;;;;;13.95;49.25;95757.25;5038494;28;20513;-71
2022/10/08 02:46:48;;;;;;;4.13;1.50;;;;;;;13.79;49.08;95767.97;5039249;28;20479;-70
2022/10/08 02:49:23;;;;;;;3.20;1.73;;;;;;;13.80;49.14;95764.25;5034894;28;20474;-72
2022/10/08 02:51:53;;;;;;;0.83;0.53;;;;;;;13.76;49.00;95768.44;5031959;28;20447;-71
2022/10/08 02:54:22;;;;;;;0.53;0.53;;;;;;;13.67;49.44;95768.13;5030399;28;20464;-70
2022/10/08 02:56:57;;;;;;;1.03;0.60;;;;;;;13.83;49.29;95771.69;5037686;28;20517;-72
2022/10/08 02:59:26;;;;;;;1.03;0.80;;;;;;;13.84;48.51;95750.34;5038072;28;21004;-71
2022/10/08 03:01:59;;;;;;;1.80;1.33;;;;;;;13.94;49.01;95760.16;5041863;28;20831;-68
2022/10/08 03:04:35;;;;;;;0.93;0.93;;;;;;;13.84;49.56;95760.09;5041305;28;20966;-71
2022/10/08 03:07:03;;;;;;;1.33;0.83;;;;;;;13.84;48.54;95760.09;5037248;28;20461;-71
2022/10/08 03:09:37;;;;;;;1.03;1.00;;;;;;;13.86;49.05;95750.09;5039138;28;20530;-72
2022/10/08 03:12:05;;;;;;;2.40;1.87;;;;;;;13.74;49.34;95765.31;5034825;28;20563;-70
2022/10/08 03:14:38;;;;;;;0.30;0.30;;;;;;;13.94;48.83;95762.78;5032442;28;20522;-72
2022/10/08 03:17:06;;;;;;;0.87;0.87;;;;;;;13.89;49.13;95750.38;5037645;28;20498;-71
2022/10/08 03:19:34;;;;;;;3.10;1.50;;;;;;;14.04;49.17;95754.94;5043992;28;20933;-70
2022/10/08 03:22:01;;;;;;;0.97;0.67;;;;;;;14.09;48.32;95754.94;5038454;28;20460;-71
2022/10/08 03:24:28;;;;;;;1.17;1.17;;;;;;;14.00;48.62;95753.84;5037919;28;20438;-72
2022/10/08 03:26:55;;;;;;;0.60;0.60;;;;;;;13.95;49.11;95756.47;5037821;28;20439;-71
2022/10/08 03:29:22;;;;;;;0.60;0.60;;;;;;;14.00;48.66;95756.47;5041583;28;20486;-70
2022/10/08 03:31:49;;;;;;;0.83;0.83;;;;;;;14.05;48.54;95753.91;5039721;28;20510;-72
2022/10/08 03:34:16;;;;;;;0.50;0.50;;;;;;;14.10;48.70;95756.56;5033664;28;20527;-71
2022/10/08 03:36:43;;;;;;;1.43;1.33;;;;;;;13.88;48.78;95755.91;5036296;28;20866;-70
2022/10/08 03:39:10;;;;;;;0.77;0.77;;;;;;;13.92;48.77;95754.34;5030808;28;20480;-69
2022/10/08 03:41:37;;;;;;;2.97;1.87;;;;;;;14.02;48.57;95751.75;5037152;28;20888;-70
2022/10/08 03:44:09;;;;;;;16.23;2.43;;;;;;;14.08;48.78;95750.75;5036018;28;20454;-69
2022/10/08 03:46:37;;;;;;;0.83;0.83;;;;;;;14.00;48.84;95743.31;5039313;28;20926;-69
2022/10/08 03:49:03;;;;;;;0.20;0.20;;;;;;;13.97;48.42;95743.81;5041349;28;20541;-72
2022/10/08 03:51:31;;;;;;;0.53;0.53;;;;;;;14.06;49.22;95742.28;5039709;28;20474;-72
2022/10/08 03:53:58;;;;;;;0.30;0.30;;;;;;;14.03;48.30;95743.59;5045495;28;20529;-71
2022/10/08 03:56:25;;;;;;;6.60;2.57;;;;;;;13.86;48.53;95742.19;5044198;28;20481;-73
2022/10/08 03:58:57;;;;;;;0.40;0.40;;;;;;;13.61;49.59;95744.66;5044292;28;20535;-71
2022/10/08 04:01:26;;;;;;;1.80;1.00;;;;;;;13.84;49.07;95754.81;5033578;28;20506;-70
2022/10/08 04:03:53;;;;;;;0.93;0.93;;;;;;;13.47;50.18;95754.03;5043062;28;20499;-70
2022/10/08 04:06:20;;;;;;;0.60;0.60;;;;;;;13.65;49.66;95758.91;5043384;28;20497;-70
2022/10/08 04:08:47;;;;;;;2.43;0.77;;;;;;;13.49;50.25;95751.94;5044355;28;20851;-71
2022/10/08 04:11:16;;;;;;;0.17;0.17;;;;;;;13.81;49.37;95752.69;5049444;28;20470;-69
2022/10/08 04:13:43;;;;;;;0.90;0.87;;;;;;;13.93;49.00;95753.28;5045589;28;20973;-71
2022/10/08 04:16:15;;;;;;;1.77;0.63;;;;;;;13.88;48.49;95751.44;5032108;28;21073;-70
2022/10/08 04:18:43;;;;;;;0.20;0.20;;;;;;;13.79;48.97;95741.63;5038327;28;20541;-70
2022/10/08 04:21:12;;;;;;;0.10;0.10;;;;;;;13.81;48.88;95755.34;5037158;28;20542;-70
2022/10/08 04:23:40;;;;;;;2.47;1.73;;;;;;;13.74;48.59;95749.50;5044902;28;20823;-71
2022/10/08 04:26:08;;;;;;;0.57;0.40;;;;;;;13.73;48.85;95753.97;5048191;28;20446;-69
2022/10/08 04:28:36;;;;;;;1.13;1.10;;;;;;;13.72;49.00;95762.13;5045167;28;20456;-71
2022/10/08 04:31:08;;;;;;;0.20;0.20;;;;;;;13.70;49.27;95754.47;5041487;28;20447;-72
2022/10/08 04:33:36;;;;;;;1.93;1.63;;;;;;;13.67;49.00;95749.69;5046948;28;20454;-70
2022/10/08 04:36:14;;;;;;;2.93;2.27;;;;;;;13.72;49.11;95746.31;5039176;28;20483;-73
2022/10/08 04:38:42;;;;;;;5.03;0.80;;;;;;;13.76;48.88;95742.91;5039742;28;20451;-72
2022/10/08 04:41:29;;;;;;;4.43;2.10;;;;;;;13.67;49.35;95743.63;5036905;28;20880;-72
2022/10/08 04:44:02;;;;;;;0.93;0.93;;;;;;;13.71;49.46;95737.63;5042247;28;21013;-70
2022/10/08 04:46:29;;;;;;;1.13;0.60;;;;;;;13.82;48.83;95746.38;5045921;28;20470;-70
2022/10/08 04:48:56;;;;;;;1.03;0.93;;;;;;;13.64;49.42;95744.16;5041417;28;20455;-71
2022/10/08 04:51:25;;;;;;;1.60;0.87;;;;;;;13.46;50.16;95753.25;5037723;28;20443;-70
2022/10/08 04:53:53;;;;;;;2.53;1.17;;;;;;;13.23;50.83;95758.06;5041561;28;20444;-71
2022/10/08 04:56:23;;;;;;;2.83;1.63;;;;;;;13.42;50.16;95756.63;5045811;28;20486;-71
2022/10/08 04:58:50;;;;;;;2.53;2.33;;;;;;;13.58;49.51;95745.16;5046002;28;20546;-73
2022/10/08 05:01:18;;;;;;;0.50;0.50;;;;;;;13.62;49.47;95754.13;5041573;28;20467;-71
2022/10/08 05:03:50;;;;;;;0.50;0.50;;;;;;;13.71;49.49;95740.25;5044909;28;20443;-73
2022/10/08 05:06:19;;;;;;;0.67;0.67;;;;;;;13.54;50.42;95750.13;5044064;28;20486;-70
2022/10/08 05:08:47;;;;;;;0.70;0.70;;;;;;;13.67;49.86;95749.69;5039196;28;20460;-70
2022/10/08 05:11:16;;;;;;;0.17;0.17;;;;;;;13.75;50.04;95751.06;5042346;28;20500;-74
2022/10/08 05:13:47;;;;;;;2.83;1.33;;;;;;;13.84;49.40;95749.53;5045954;28;20451;-70
2022/10/08 05:16:16;;;;;;;9.23;1.50;;;;;;;13.63;49.79;95758.38;5040355;28;20578;-71
2022/10/08 05:18:43;;;;;;;0.97;0.93;;;;;;;13.52;49.60;95754.09;5039740;28;20447;-72
2022/10/08 05:21:12;;;;;;;3.00;1.17;;;;;;;13.62;49.78;95751.50;5039292;28;20447;-69
2022/10/08 05:23:41;;;;;;;0.47;0.43;;;;;;;13.70;49.64;95753.69;5041853;28;20542;-72
2022/10/08 05:26:25;;;;;;;0.17;0.17;;;;;;;13.73;49.67;95756.59;5031242;28;20448;-72
2022/10/08 05:29:12;;;;;;;3.97;0.97;;;;;;;13.58;50.33;95750.41;5035502;28;20950;-73
2022/10/08 05:31:39;;;;;;;0.20;0.20;;;;;;;13.73;50.93;95759.22;5035391;28;20483;-71
2022/10/08 05:34:06;;;;;;;0.53;0.53;;;;;;;13.71;51.21;95763.97;5038261;28;20491;-67
2022/10/08 05:36:33;;;;;;;1.27;0.60;;;;;;;13.91;50.83;95771.19;5037999;28;20483;-64
2022/10/08 05:39:02;;;;;;;0.50;0.50;;;;;;;13.82;51.72;95756.91;5044374;28;20535;-66
2022/10/08 05:41:32;;;;;;;1.20;1.07;;;;;;;14.10;50.42;95759.19;5038532;28;20897;-66
2022/10/08 05:44:00;;;;;;;0.10;0.10;;;;;;;14.48;49.45;95758.84;5041738;28;20829;-67
2022/10/08 05:46:30;;;;;;;2.37;1.13;;;;;;;14.23;50.83;95764.00;5034423;28;20471;-67
2022/10/08 05:48:59;;;;;;;9.03;3.10;;;;;;;14.59;49.56;95768.41;5045250;28;20454;-66
2022/10/08 05:51:27;;;;;;;0.30;0.30;;;;;;;13.71;50.97;95763.16;5039209;28;20805;-65
2022/10/08 05:53:55;;;;;;;0.87;0.83;;;;;;;14.24;50.00;95765.56;5046554;28;20454;-64
2022/10/08 05:56:23;;;;;;;0.60;0.60;;;;;;;14.33;50.81;95769.34;5034977;28;20840;-66
2022/10/08 05:58:51;;;;;;;0.73;0.73;;;;;;;14.61;49.25;95766.28;5044589;28;20509;-66
2022/10/08 06:01:21;;;;;;;0.20;0.20;;;;;;;14.71;48.67;95763.66;5041092;28;20445;-66
2022/10/08 06:03:59;;;;;;;0.80;0.53;;;;;;;14.50;50.89;95758.59;5045924;28;20487;-64
2022/10/08 06:06:35;;;;;;;2.00;1.50;;;;;;;14.48;51.91;95764.13;5036762;28;20558;-71
2022/10/08 06:09:02;;;;;;;0.10;0.10;;;;;;;14.50;51.89;95759.41;5039995;28;21061;-67
2022/10/08 06:11:31;;;;;;;2.47;1.40;;;;;;;14.73;51.07;95752.84;5038752;28;20454;-65
2022/10/08 06:13:59;;;;;;;0.50;0.50;;;;;;;15.06;50.40;95755.84;5032367;28;20454;-66
2022/10/08 06:16:28;;;;;;;0.30;0.20;;;;;;;15.05;50.77;95746.31;5037445;28;20524;-66
2022/10/08 06:18:55;;;;;;;3.47;1.97;;;;;;;14.85;51.74;95751.56;5030952;28;20864;-66
2022/10/08 06:21:24;;;;;;;0.20;0.20;;;;;;;15.10;49.87;95754.28;5032831;28;20553;-66
2022/10/08 06:23:53;;;;;;;0.67;0.67;;;;;;;15.46;48.98;95752.47;5031750;28;20447;-72
2022/10/08 06:26:22;;;;;;;0.53;0.53;;;;;;;15.03;49.89;95753.72;5037712;28;20490;-73
2022/10/08 06:28:49;;;;;;;2.03;1.17;;;;;;;15.02;50.41;95761.88;5029371;28;20432;-69
2022/10/08 06:31:16;;;;;;;1.17;1.10;;;;;;;14.70;50.93;95759.47;5041181;28;20522;-74
2022/10/08 06:33:45;;;;;;;0.57;0.53;;;;;;;14.99;50.47;95755.31;5030264;28;20535;-73
2022/10/08 06:36:17;;;;;;;1.63;1.53;;;;;;;15.52;48.90;95761.16;5027813;28;20529;-72
2022/10/08 06:38:51;;;;;;;7.63;0.97;;;;;;;14.94;50.53;95760.56;5040827;28;20448;-75
2022/10/08 06:41:19;;;;;;;0.33;0.33;;;;;;;14.84;51.37;95760.53;5028339;28;20467;-71
2022/10/08 06:43:48;;;;;;;0.20;0.20;;;;;;;15.19;49.82;95755.34;5028417;28;20443;-71
2022/10/08 06:46:17;;;;;;;0.43;0.43;;;;;;;15.23;49.09;95737.91;5031272;28;20476;-66
2022/10/08 06:48:45;;;;;;;1.50;1.40;;;;;;;15.76;48.96;95751.66;5034121;28;20450;-70
2022/10/08 06:51:14;;;;;;;2.73;2.50;;;;;;;16.01;48.37;95749.75;5032398;28;20521;-75
2022/10/08 06:53:43;;;;;;;0.37;0.37;;;;;;;15.39;50.24;95749.25;5031192;28;20554;-69
2022/10/08 06:56:13;;;;;;;0.80;0.80;;;;;;;15.42;50.14;95748.75;5027891;28;20500;-69
2022/10/08 06:58:42;;;;;;;0.27;0.27;;;;;;;15.56;48.63;95746.38;5029693;28;20444;-73
2022/10/08 07:01:13;;;;;;;1.60;1.23;;;;;;;16.35;46.80;95741.97;5037652;28;20447;-67
2022/10/08 07:03:40;;;;;;;2.17;1.87;;;;;;;16.18;47.26;95749.44;5040085;28;20954;-72
2022/10/08 07:06:09;;;;;;;2.53;0.83;;;;;;;16.32;46.54;95741.72;5039171;28;20564;-73
2022/10/08 07:08:36;;;;;;;0.20;0.20;;;;;;;15.77;48.76;95742.66;5049221;28;20881;-70
2022/10/08 07:11:04;;;;;;;1.07;1.07;;;;;;;16.46;46.88;95740.88;5035417;28;20451;-68
2022/10/08 07:13:32;;;;;;;4.37;3.60;;;;;;;16.94;46.06;95734.84;5011784;28;20534;-71
2022/10/08 07:16:07;;;;;;;2.97;2.77;;;;;;;17.18;45.06;95743.69;5034264;28;20448;-68
2022/10/08 07:18:35;;;;;;;0.40;0.40;;;;;;;16.54;47.33;95748.28;5027766;28;20428;-66
2022/10/08 07:21:03;;;;;;;0.73;0.60;;;;;;;16.59;46.96;95735.00;5037339;28;21037;-69
2022/10/08 07:23:30;;;;;;;0.63;0.63;;;;;;;16.37;47.64;95745.13;5029921;28;20448;-70
2022/10/08 07:26:00;;;;;;;0.83;0.83;;;;;;;16.75;46.69;95738.41;5038032;28;20455;-71
2022/10/08 07:28:30;;;;;;;1.53;1.33;;;;;;;17.13;45.37;95741.03;5045763;28;20442;-71
2022/10/08 07:31:04;;;;;;;0.93;0.90;;;;;;;16.76;46.22;95740.75;5033795;28;20503;-74
2022/10/08 07:33:32;;;;;;;0.90;0.80;;;;;;;17.07;45.51;95736.06;5049025;28;20680;-71
2022/10/08 07:36:28;;;;;;;0.90;0.90;;;;;;;17.79;44.20;95722.78;5044955;28;20432;-70
2022/10/08 07:39:03;;;;;;;1.63;1.43;;;;;;;17.78;43.99;95720.41;5045936;28;20838;-69
2022/10/08 07:41:31;;;;;;;0.80;0.67;;;;;;;18.19;43.86;95726.88;5037872;28;20817;-69
2022/10/08 07:44:00;;;;;;;1.43;1.33;;;;;;;18.28;43.20;95709.28;5045264;28;20446;-69
2022/10/08 07:46:35;;;;;;;9.63;1.80;;;;;;;18.40;43.13;95717.59;5039454;28;20506;-68
2022/10/08 07:49:03;;;;;;;25.43;8.20;;;;;;;18.69;42.67;95720.97;5029984;28;20489;-69
2022/10/08 07:51:32;;;;;;;9.03;5.33;;;;;;;18.57;43.14;95727.78;5028779;28;20443;-68
2022/10/08 07:54:00;;;;;;;1.17;1.17;;;;;;;18.69;43.19;95714.88;5048014;28;20445;-69
2022/10/08 07:56:29;;;;;;;3.00;1.03;;;;;;;18.40;43.31;95722.91;5036693;28;20480;-68
2022/10/08 07:58:58;;;;;;;0.90;0.90;;;;;;;18.74;42.36;95706.84;5046870;28;20869;-73
2022/10/08 08:01:28;;;;;;;0.80;0.80;;;;;;;18.91;43.33;95723.06;5038010;28;20848;-70
2022/10/08 08:04:01;;;;;;;8.23;1.70;;;;;;;18.93;42.01;95711.09;5039721;28;21019;-70
2022/10/08 08:06:29;;;;;;;0.10;0.10;;;;;;;18.64;43.25;95707.78;5048807;28;20918;-67
2022/10/08 08:08:58;;;;;;;0.30;0.30;;;;;;;18.86;43.40;95713.31;5048634;28;20439;-67
2022/10/08 08:11:25;;;;;;;3.53;1.83;;;;;;;18.84;43.47;95690.78;5039093;28;20447;-68
2022/10/08 08:13:52;;;;;;;0.37;0.37;;;;;;;19.08;43.39;95707.41;5038967;28;20470;-69
2022/10/08 08:16:24;;;;;;;0.50;0.50;;;;;;;19.23;43.34;95703.75;5040841;28;20541;-67
2022/10/08 08:18:54;;;;;;;1.33;0.60;;;;;;;19.02;43.57;95700.59;5041993;28;20443;-68
2022/10/08 08:21:28;;;;;;;1.53;1.43;;;;;;;20.02;41.87;95696.28;5048010;28;20533;-68
2022/10/08 08:23:58;;;;;;;0.20;0.20;;;;;;;20.69;40.38;95699.22;5047860;28;20451;-68
2022/10/08 08:26:28;;;;;;;1.07;1.07;;;;;;;20.90;39.21;95685.16;5034032;28;20561;-69
2022/10/08 08:28:57;;;;;;;4.83;4.37;;;;;;;20.69;40.67;95685.91;5047953;28;20530;-69
2022/10/08 08:31:27;;;;;;;12.03;3.60;;;;;;;21.13;39.26;95684.09;5028493;28;20897;-64
2022/10/08 08:34:06;;;;;;;2.60;2.40;;;;;;;21.18;38.31;95676.00;5038159;28;20446;-64
2022/10/08 08:36:38;;;;;;;0.10;0.10;;;;;;;21.30;38.99;95677.31;5051331;28;20898;-63
2022/10/08 08:39:07;;;;;;;1.90;1.63;;;;;;;21.45;39.20;95679.63;5051553;28;20504;-63
2022/10/08 08:41:55;;;;;;;2.93;0.67;;;;;;;21.22;38.70;95676.19;5040608;28;20447;-63
2022/10/08 08:44:33;;;;;;;1.40;0.77;;;;;;;20.99;39.14;95672.72;5038704;28;21045;-63
2022/10/08 08:47:11;;;;;;;1.60;1.43;;;;;;;21.32;38.77;95664.47;5044987;28;20440;-63
2022/10/08 08:49:44;;;;;;;0.57;0.40;;;;;;;21.44;37.22;95667.41;5046933;28;20514;-66
2022/10/08 08:52:15;;;;;;;1.20;0.90;;;;;;;20.98;38.94;95660.44;5037415;28;20813;-63
2022/10/08 08:54:48;;;;;;;6.80;1.27;;;;;;;21.55;38.87;95661.50;5050052;28;20449;-63
2022/10/08 08:57:36;;;;;;;4.00;2.07;;;;;;;21.50;39.36;95655.50;5050869;28;21025;-64
2022/10/08 09:00:26;;;;;;;0.47;0.47;;;;;;;21.29;39.92;95663.22;5042032;28;20483;-66
2022/10/08 09:03:17;;;;;;;1.30;1.20;;;;;;;22.16;38.16;95658.03;5030802;28;20471;-65
2022/10/08 09:05:47;;;;;;;1.13;0.97;;;;;;;21.84;38.74;95650.38;5030559;28;20206;-64
2022/10/08 09:08:26;;;;;;;1.00;0.53;;;;;;;22.34;36.57;95653.50;5050043;28;20485;-65
2022/10/08 09:10:58;;;;;;;2.13;1.07;;;;;;;21.83;37.90;95654.13;5050848;28;20485;-64
2022/10/08 09:13:36;;;;;;;2.27;1.43;;;;;;;22.49;36.31;95656.56;5037318;28;20212;-64
2022/10/08 09:16:03;;;;;;;0.50;0.50;;;;;;;22.96;36.08;95638.84;5051097;28;20220;-65
2022/10/08 09:18:31;;;;;;;3.27;1.50;;;;;;;22.93;36.16;95640.28;5036546;28;20565;-65
2022/10/08 09:20:58;;;;;;;0.80;0.80;;;;;;;21.73;37.80;95639.13;5038374;28;20454;-64
2022/10/08 09:23:26;;;;;;;0.40;0.40;;;;;;;22.37;37.16;95637.66;5049257;28;20218;-64
2022/10/08 09:26:00;;;;;;;0.70;0.70;;;;;;;23.10;35.95;95629.56;5040156;28;20240;-64
2022/10/08 09:28:43;;;;;;;0.33;0.33;;;;;;;22.93;35.89;95629.59;5048457;28;20291;-63
2022/10/08 09:31:39;;;;;;;0.57;0.57;;;;;;;23.25;35.06;95624.84;5050660;28;20223;-63
2022/10/08 09:34:09;;;;;;;1.43;1.33;;;;;;;23.70;34.99;95618.00;5042481;28;20201;-63
2022/10/08 09:36:50;;;;;;;0.70;0.70;;;;;;;23.01;35.67;95620.75;5050056;28;20200;-62
2022/10/08 09:39:25;;;;;;;0.30;0.30;;;;;;;23.36;34.26;95620.72;5047965;28;20184;-62
2022/10/08 09:42:07;;;;;;;0.40;0.40;;;;;;;22.96;34.15;95610.25;5029933;28;20279;-66
2022/10/08 09:44:47;;;;;;;0.23;0.23;;;;;;;23.68;33.17;95606.81;5047568;28;20220;-62
2022/10/08 09:47:17;;;;;;;1.57;1.37;;;;;;;23.70;33.25;95601.94;5047880;28;20299;-62
2022/10/08 09:49:50;;;;;;;1.83;1.50;;;;;;;23.97;32.99;95598.81;5044997;28;20599;-62
2022/10/08 09:52:26;;;;;;;2.80;1.30;;;;;;;23.82;33.41;95596.69;5035451;28;20244;-66
2022/10/08 09:55:01;;;;;;;0.60;0.60;;;;;;;23.47;33.48;95589.88;5049835;28;20298;-63
2022/10/08 09:57:31;;;;;;;3.30;0.80;;;;;;;23.62;33.64;95586.69;5030309;28;20223;-63
2022/10/08 10:00:01;;;;;;;4.40;2.17;;;;;;;24.01;32.70;95586.41;5030953;28;20276;-61
2022/10/08 10:02:36;;;;;;;0.60;0.60;;;;;;;24.49;32.40;95589.38;5049084;28;20223;-63
2022/10/08 10:05:05;;;;;;;4.53;0.63;;;;;;;24.30;32.12;95586.38;5049744;28;20292;-59
2022/10/08 10:07:41;;;;;;;0.70;0.70;;;;;;;24.34;33.57;95571.22;5050184;28;20220;-62
2022/10/08 10:10:17;;;;;;;1.03;1.03;;;;;;;24.78;31.97;95567.91;5049659;28;20196;-61
2022/10/08 10:12:49;;;;;;;2.13;0.77;;;;;;;24.97;31.78;95562.88;5035289;28;20691;-61
2022/10/08 10:15:34;;;;;;;0.67;0.67;;;;;;;24.92;30.27;95560.41;5049534;28;20200;-62
2022/10/08 10:18:04;;;;;;;0.50;0.50;;;;;;;24.00;30.87;95560.69;5041890;28;20208;-62
2022/10/08 10:20:38;;;;;;;5.17;4.63;;;;;;;24.20;31.70;95557.28;5047239;28;20224;-64
2022/10/08 10:23:17;;;;;;;3.53;1.37;;;;;;;24.13;29.66;95532.91;5036494;28;20696;-63
2022/10/08 10:25:59;;;;;;;0.40;0.40;;;;;;;24.65;29.62;95555.53;5048629;28;20288;-64
2022/10/08 10:28:40;;;;;;;0.63;0.33;;;;;;;24.68;30.29;95549.53;5038780;28;20184;-63
2022/10/08 10:31:15;;;;;;;0.50;0.50;;;;;;;24.61;30.69;95543.91;5032237;28;20193;-63
2022/10/08 10:33:53;;;;;;;0.50;0.50;;;;;;;24.39;31.05;95541.56;5030958;28;20204;-63
2022/10/08 10:36:22;;;;;;;1.13;0.63;;;;;;;24.67;30.71;95531.09;5045265;28;20211;-64
2022/10/08 10:39:16;;;;;;;0.53;0.50;;;;;;;24.69;30.63;95534.25;5039920;28;20665;-63
2022/10/08 10:41:54;;;;;;;0.33;0.27;;;;;;;25.10;30.37;95528.81;5029489;28;20308;-63
2022/10/08 10:44:25;;;;;;;0.30;0.30;;;;;;;24.49;29.77;95535.03;5042807;28;20232;-62
2022/10/08 10:46:56;;;;;;;0.77;0.77;;;;;;;25.04;30.74;95520.19;5042090;28;20295;-62
2022/10/08 10:49:37;;;;;;;0.63;0.53;;;;;;;25.16;30.11;95521.34;5048697;28;20193;-64
2022/10/08 10:52:22;;;;;;;0.23;0.23;;;;;;;24.87;29.55;95509.63;5031088;28;20668;-62
2022/10/08 10:55:17;;;;;;;0.40;0.40;;;;;;;25.41;29.95;95501.50;5039013;28;20279;-64
2022/10/08 10:58:06;;;;;;;0.40;0.40;;;;;;;25.12;31.65;95497.09;5036384;28;20286;-63
2022/10/08 11:00:39;;;;;;;0.60;0.60;;;;;;;25.02;31.43;95495.59;5048548;28;20648;-63
2022/10/08 11:03:28;;;;;;;1.90;0.83;;;;;;;25.10;31.66;95491.28;5048425;28;20214;-63
2022/10/08 11:06:32;;;;;;;0.67;0.67;;;;;;;25.24;31.01;95490.94;5059472;28;20200;-64
2022/10/08 11:09:04;;;;;;;0.40;0.40;;;;;;;25.24;30.99;95480.22;5033947;28;20301;-63
2022/10/08 11:11:43;;;;;;;0.30;0.30;;;;;;;25.92;30.02;95485.53;5048310;28;20639;-62
2022/10/08 11:14:32;;;;;;;0.20;0.20;;;;;;;25.81;29.15;95481.72;5033922;28;20196;-63
2022/10/08 11:17:33;;;;;;;0.37;0.37;;;;;;;25.69;30.05;95475.59;5035832;28;20272;-65
2022/10/08 11:20:16;;;;;;;2.83;2.07;;;;;;;25.59;28.67;95471.44;5038441;28;20200;-65
2022/10/08 11:23:26;;;;;;;0.83;0.83;;;;;;;25.98;28.27;95464.59;5034525;28;20196;-65
2022/10/08 11:26:13;;;;;;;0.40;0.40;;;;;;;25.59;29.02;95459.91;5036967;28;20299;-66
2022/10/08 11:29:08;;;;;;;0.67;0.60;;;;;;;26.66;28.87;95455.44;5035954;28;20209;-67
2022/10/08 11:31:47;;;;;;;1.23;0.87;;;;;;;27.08;28.05;95447.72;5035418;28;20755;-63
2022/10/08 11:34:24;;;;;;;0.37;0.37;;;;;;;26.52;28.34;95448.88;5036475;28;20561;-64
2022/10/08 11:37:03;;;;;;;0.43;0.43;;;;;;;26.91;29.24;95448.84;5039886;28;20209;-66
2022/10/08 11:39:39;;;;;;;3.93;1.47;;;;;;;26.29;29.83;95445.97;5042432;28;20630;-64
2022/10/08 11:42:16;;;;;;;1.27;0.63;;;;;;;26.71;28.66;95441.78;5029597;28;20231;-66
2022/10/08 11:44:44;;;;;;;0.40;0.40;;;;;;;26.44;29.71;95433.72;5045183;28;20242;-63
2022/10/08 11:47:41;;;;;;;1.40;0.73;;;;;;;26.79;28.22;95431.97;5047062;28;20228;-62
2022/10/08 11:50:23;;;;;;;0.40;0.40;;;;;;;27.15;28.60;95434.47;5045994;28;20656;-62
2022/10/08 11:52:55;;;;;;;1.23;0.67;;;;;;;26.50;28.06;95430.41;5038037;28;20294;-62
2022/10/08 11:55:29;;;;;;;0.47;0.47;;;;;;;26.04;28.37;95422.97;5045216;28;20212;-65
2022/10/08 11:58:00;;;;;;;0.30;0.30;;;;;;;26.33;28.38;95417.28;5038379;28;20600;-63
2022/10/08 12:00:44;;;;;;;0.40;0.40;;;;;;;26.27;27.56;95410.59;5044254;28;20196;-64
2022/10/08 12:03:32;;;;;;;2.87;0.53;;;;;;;26.27;29.70;95410.59;5039522;28;20204;-62